Time;durP1;ratioP1;P1;durP2;ratioP2;P2;SDS_P1;SDS_P2;PMS_P1;PMS_P2;Temp;Humidity;BMP_temperature;BMP_pressure;BME280_temperature;BME280_humidity;BME280_pressure;Samples;Min_cycle;Max_cycle;Signal;HPM_P1;HPM_P2
2023/01/21 00:02:00;;;;;;;11.23;9.50;;;-0.50;48.10;;;;;;20439;6932;117182;-73
2023/01/21 00:04:26;;;;;;;9.10;8.33;;;-0.50;48.70;;;;;;20415;6947;118515;-76
2023/01/21 00:06:52;;;;;;;11.80;10.73;;;-0.40;47.80;;;;;;20245;6932;281210;-76
2023/01/21 00:09:18;;;;;;;11.03;9.60;;;-0.40;47.70;;;;;;20467;6932;118257;-75
2023/01/21 00:11:43;;;;;;;12.93;11.53;;;-0.30;47.50;;;;;;20260;6932;313404;-74
2023/01/21 00:14:10;;;;;;;12.75;11.55;;;-0.10;47.20;;;;;;20261;6932;311145;-78
2023/01/21 00:16:35;;;;;;;11.12;9.68;;;0.20;46.30;;;;;;20437;6932;118174;-73
2023/01/21 00:19:00;;;;;;;9.77;8.77;;;0.20;46.20;;;;;;20431;6947;118088;-73
2023/01/21 00:21:26;;;;;;;11.38;10.48;;;0.00;46.60;;;;;;20260;6932;281329;-73
2023/01/21 00:23:52;;;;;;;10.45;9.35;;;0.00;46.70;;;;;;20477;6932;121715;-73
2023/01/21 00:26:18;;;;;;;10.23;9.33;;;0.00;46.70;;;;;;20470;6932;122769;-73
2023/01/21 00:28:45;;;;;;;11.40;10.50;;;-0.10;47.10;;;;;;20199;6947;310319;-75
2023/01/21 00:31:09;;;;;;;12.45;11.32;;;0.00;47.10;;;;;;20264;6932;280569;-75
2023/01/21 00:33:34;;;;;;;12.00;10.90;;;0.30;46.60;;;;;;20262;6932;280655;-73
2023/01/21 00:36:03;;;;;;;11.03;9.93;;;0.60;45.90;;;;;;20474;6932;118281;-73
2023/01/21 00:38:28;;;;;;;12.23;11.12;;;0.50;46.00;;;;;;20188;6947;310860;-73
2023/01/21 00:41:04;;;;;;;10.05;9.05;;;0.50;46.20;;;;;;20448;6932;118783;-75
2023/01/21 00:43:30;;;;;;;10.03;9.10;;;0.20;46.60;;;;;;20424;6945;117644;-72
2023/01/21 00:45:56;;;;;;;13.23;11.82;;;0.10;46.50;;;;;;20251;6932;339857;-73
2023/01/21 00:48:21;;;;;;;11.23;10.10;;;0.20;46.30;;;;;;20466;6930;118019;-73
2023/01/21 00:50:47;;;;;;;12.87;11.67;;;0.10;46.20;;;;;;20224;6931;304458;-73
2023/01/21 00:53:12;;;;;;;13.30;10.80;;;0.10;46.00;;;;;;20471;6931;121942;-74
2023/01/21 00:55:38;;;;;;;10.20;9.30;;;0.10;46.00;;;;;;20469;6931;117902;-73
2023/01/21 00:58:04;;;;;;;13.10;11.85;;;-0.20;46.20;;;;;;20263;6931;309669;-73
2023/01/21 01:00:29;;;;;;;13.40;12.10;;;-0.10;46.30;;;;;;20256;6931;280557;-75
2023/01/21 01:02:55;;;;;;;11.65;10.25;;;0.10;45.70;;;;;;20452;6931;122083;-73
2023/01/21 01:05:21;;;;;;;10.73;9.70;;;0.10;45.70;;;;;;20477;6931;117543;-73
2023/01/21 01:07:46;;;;;;;12.10;9.93;;;-0.20;46.10;;;;;;20469;6932;117858;-73
2023/01/21 01:10:11;;;;;;;11.30;9.43;;;-0.40;46.60;;;;;;20425;6947;118127;-73
2023/01/21 01:12:37;;;;;;;10.13;9.13;;;-0.60;47.00;;;;;;20452;6932;118323;-75
2023/01/21 01:15:03;;;;;;;13.07;11.77;;;-0.70;47.40;;;;;;20210;6947;310723;-73
2023/01/21 01:17:30;;;;;;;13.53;12.37;;;-0.60;47.30;;;;;;20256;6932;340352;-75
2023/01/21 01:19:56;;;;;;;11.23;10.23;;;-0.20;46.70;;;;;;20456;6932;122719;-75
2023/01/21 01:22:22;;;;;;;14.10;10.07;;;-0.40;46.90;;;;;;20436;6932;120861;-75
2023/01/21 01:24:47;;;;;;;11.20;9.23;;;-0.40;46.80;;;;;;20454;6932;118134;-71
2023/01/21 01:27:13;;;;;;;12.27;9.43;;;-0.60;47.20;;;;;;20480;6932;119139;-74
2023/01/21 01:29:38;;;;;;;10.07;9.15;;;-0.70;47.60;;;;;;20448;6947;116985;-72
2023/01/21 01:32:04;;;;;;;10.13;9.03;;;-0.90;47.70;;;;;;20488;6932;118451;-73
2023/01/21 01:34:29;;;;;;;12.70;11.50;;;-1.00;47.80;;;;;;20238;6947;310233;-73
2023/01/21 01:36:55;;;;;;;10.98;9.82;;;-0.90;47.70;;;;;;20506;6932;117750;-73
2023/01/21 01:39:21;;;;;;;10.27;9.38;;;-0.80;47.40;;;;;;20425;6947;118332;-72
2023/01/21 01:41:47;;;;;;;12.23;11.12;;;-0.80;47.50;;;;;;20259;6932;282807;-73
2023/01/21 01:44:52;;;;;;;10.90;9.60;;;-0.80;47.50;;;;;;20468;6932;118056;-74
2023/01/21 01:47:18;;;;;;;12.85;11.52;;;-0.80;47.20;;;;;;20255;6932;310122;-75
2023/01/21 01:49:44;;;;;;;12.07;11.00;;;-0.60;46.80;;;;;;20245;6932;310780;-74
2023/01/21 01:52:09;;;;;;;9.98;9.15;;;-0.30;46.20;;;;;;20462;6932;121982;-74
2023/01/21 01:54:35;;;;;;;12.13;11.12;;;-0.30;46.10;;;;;;20186;6947;310319;-74
2023/01/21 01:57:00;;;;;;;9.67;8.63;;;-0.30;46.10;;;;;;20452;6932;120336;-74
2023/01/21 01:59:26;;;;;;;8.90;8.10;;;-0.40;46.10;;;;;;20422;6945;116828;-74
2023/01/21 02:01:51;;;;;;;10.63;9.73;;;-0.60;46.50;;;;;;20256;6931;282422;-74
2023/01/21 02:04:17;;;;;;;13.20;12.07;;;-0.60;47.10;;;;;;20201;6946;281088;-73
2023/01/21 02:06:42;;;;;;;13.37;12.03;;;-0.30;46.60;;;;;;20214;6931;298562;-73
2023/01/21 02:09:08;;;;;;;12.98;11.77;;;-0.10;46.40;;;;;;20234;6931;310778;-74
2023/01/21 02:11:34;;;;;;;11.30;10.10;;;0.20;45.60;;;;;;20461;6931;117981;-74
2023/01/21 02:13:59;;;;;;;10.43;9.43;;;0.00;45.60;;;;;;20457;6931;117728;-74
2023/01/21 02:16:51;;;;;;;12.23;11.10;;;-0.30;46.10;;;;;;20221;6931;315000;-74
2023/01/21 02:19:41;;;;;;;10.67;9.57;;;-0.30;46.30;;;;;;20466;6932;118081;-75
2023/01/21 02:22:35;;;;;;;13.33;12.20;;;-0.50;46.10;;;;;;20245;6932;304781;-77
2023/01/21 02:25:37;;;;;;;12.00;9.90;;;-0.40;46.30;;;;;;20213;6932;119332;-74
2023/01/21 02:28:33;;;;;;;13.17;12.00;;;-0.60;46.40;;;;;;20243;6932;334180;-75
2023/01/21 02:31:01;;;;;;;11.23;10.10;;;-0.50;46.30;;;;;;20461;6932;120001;-75
2023/01/21 02:33:44;;;;;;;12.90;11.70;;;-0.60;46.20;;;;;;20248;6932;281446;-75
2023/01/21 02:36:30;;;;;;;14.17;12.83;;;-0.60;46.70;;;;;;20239;6932;310285;-74
2023/01/21 02:39:05;;;;;;;14.17;12.97;;;-0.30;46.10;;;;;;20225;6932;310277;-75
2023/01/21 02:41:37;;;;;;;11.60;10.50;;;-0.10;45.50;;;;;;20432;6932;118162;-75
2023/01/21 02:44:18;;;;;;;12.73;9.73;;;-0.70;46.00;;;;;;20439;6932;119466;-74
2023/01/21 02:46:50;;;;;;;10.43;9.40;;;-0.70;46.00;;;;;;19711;6947;122722;-74
2023/01/21 02:49:26;;;;;;;9.97;9.07;;;-1.00;46.60;;;;;;20406;6932;121927;-74
2023/01/21 02:51:51;;;;;;;10.97;9.33;;;-1.20;47.40;;;;;;20408;6947;119030;-75
2023/01/21 02:54:37;;;;;;;10.20;9.25;;;-1.30;47.90;;;;;;20463;6932;121866;-75
2023/01/21 02:57:02;;;;;;;12.63;11.55;;;-1.40;48.20;;;;;;20210;6947;298268;-75
2023/01/21 02:59:28;;;;;;;10.90;9.90;;;-1.20;48.10;;;;;;20455;6932;117914;-75
2023/01/21 03:02:00;;;;;;;12.93;11.83;;;-0.90;47.80;;;;;;20204;6947;299144;-75
2023/01/21 03:04:46;;;;;;;13.50;12.20;;;-1.00;47.70;;;;;;20210;6932;307222;-75
2023/01/21 03:07:21;;;;;;;12.47;11.47;;;-0.60;47.30;;;;;;20234;6932;313941;-77
2023/01/21 03:09:47;;;;;;;10.53;9.43;;;-0.30;46.60;;;;;;20438;6932;118382;-75
2023/01/21 03:12:29;;;;;;;11.13;9.30;;;-0.50;46.50;;;;;;20412;6945;118832;-75
2023/01/21 03:18:07;;;;;;;11.03;9.93;;;-0.70;47.00;;;;;;20461;6931;120090;-75
2023/01/21 03:20:33;;;;;;;10.07;9.13;;;-0.90;46.80;;;;;;20431;6931;119044;-77
2023/01/21 03:22:58;;;;;;;11.00;9.27;;;-1.10;47.30;;;;;;20403;6946;123313;-75
2023/01/21 03:25:24;;;;;;;12.15;8.85;;;-1.40;47.70;;;;;;20452;6931;117828;-75
2023/01/21 03:27:49;;;;;;;9.80;8.90;;;-1.50;48.00;;;;;;20408;6946;118249;-74
2023/01/21 03:30:15;;;;;;;11.50;9.25;;;-1.60;48.40;;;;;;20453;6931;118130;-76
2023/01/21 03:32:40;;;;;;;12.47;9.03;;;-1.70;48.60;;;;;;20368;6947;128051;-76
2023/01/21 03:35:06;;;;;;;12.60;11.40;;;-1.80;49.20;;;;;;20223;6932;281775;-74
2023/01/21 03:37:38;;;;;;;13.10;11.80;;;-1.70;48.90;;;;;;20246;6932;284650;-74
2023/01/21 03:40:04;;;;;;;12.32;11.27;;;-1.30;48.60;;;;;;20244;6932;314186;-74
2023/01/21 03:42:31;;;;;;;12.23;11.13;;;-0.90;47.70;;;;;;20220;6932;314394;-74
2023/01/21 03:44:56;;;;;;;10.63;9.63;;;-0.70;47.00;;;;;;20470;6932;125426;-74
2023/01/21 03:47:34;;;;;;;9.40;8.53;;;-0.80;46.80;;;;;;20404;6947;119131;-74
2023/01/21 03:50:16;;;;;;;11.20;10.20;;;-1.10;47.30;;;;;;20251;6932;281813;-77
2023/01/21 03:52:42;;;;;;;11.47;10.47;;;-1.10;47.30;;;;;;20234;6932;297698;-76
2023/01/21 03:55:08;;;;;;;14.30;13.07;;;-0.90;46.40;;;;;;20244;6932;314488;-76
2023/01/21 03:57:33;;;;;;;11.50;10.40;;;-0.60;46.10;;;;;;20244;6932;344409;-74
2023/01/21 03:59:59;;;;;;;8.60;7.80;;;-0.50;45.40;;;;;;20459;6932;124667;-76
2023/01/21 04:02:24;;;;;;;8.65;7.93;;;-0.70;45.50;;;;;;20409;6947;118202;-77
2023/01/21 04:04:51;;;;;;;7.75;7.15;;;-1.00;46.20;;;;;;20438;6932;122761;-76
2023/01/21 04:07:16;;;;;;;9.30;8.40;;;-1.50;47.40;;;;;;20407;6947;119042;-77
2023/01/21 04:09:42;;;;;;;10.53;8.80;;;-1.50;47.40;;;;;;20446;6932;118811;-76
2023/01/21 04:12:07;;;;;;;11.50;10.50;;;-1.60;47.90;;;;;;20209;6947;281124;-76
2023/01/21 04:14:33;;;;;;;9.65;8.82;;;-1.50;48.00;;;;;;20438;6932;119449;-77
2023/01/21 04:16:58;;;;;;;9.07;8.07;;;-1.40;47.90;;;;;;20411;6947;118435;-77
2023/01/21 04:19:25;;;;;;;12.32;11.32;;;-1.50;47.50;;;;;;20252;6932;324732;-78
2023/01/21 04:21:50;;;;;;;13.37;11.97;;;-1.50;47.50;;;;;;20458;6930;119672;-74
2023/01/21 04:24:16;;;;;;;10.32;9.32;;;-1.40;47.40;;;;;;20467;6931;117967;-75
2023/01/21 04:26:44;;;;;;;9.30;8.40;;;-1.50;47.60;;;;;;20397;6946;118870;-75
2023/01/21 04:29:09;;;;;;;12.17;11.10;;;-1.70;47.90;;;;;;20241;6931;310666;-73
2023/01/21 04:31:35;;;;;;;10.40;9.30;;;-1.60;48.00;;;;;;20462;6931;119117;-74
2023/01/21 04:34:01;;;;;;;12.23;11.12;;;-1.50;47.80;;;;;;20247;6931;310663;-74
2023/01/21 04:36:27;;;;;;;10.37;9.27;;;-1.30;47.40;;;;;;20459;6931;118653;-74
2023/01/21 04:38:52;;;;;;;9.67;8.77;;;-1.30;47.40;;;;;;20449;6931;118990;-74
2023/01/21 04:41:18;;;;;;;11.90;10.90;;;-1.40;47.70;;;;;;20204;6947;282206;-74
2023/01/21 04:43:44;;;;;;;10.13;9.18;;;-1.30;47.80;;;;;;20465;6932;119198;-75
2023/01/21 04:46:09;;;;;;;9.97;8.40;;;-1.30;47.60;;;;;;20421;6947;118298;-74
2023/01/21 04:48:35;;;;;;;7.97;7.28;;;-1.40;47.90;;;;;;20428;6932;118899;-74
2023/01/21 04:51:00;;;;;;;10.75;9.95;;;-1.60;48.20;;;;;;20208;6947;281088;-75
2023/01/21 04:53:26;;;;;;;10.30;9.30;;;-1.50;48.20;;;;;;20461;6932;117929;-74
2023/01/21 04:55:51;;;;;;;8.43;7.63;;;-1.40;48.10;;;;;;20413;6947;117698;-76
2023/01/21 04:58:17;;;;;;;9.65;7.95;;;-1.50;48.30;;;;;;20466;6932;117557;-74
2023/01/21 05:00:43;;;;;;;9.02;8.23;;;-1.70;48.40;;;;;;20385;6947;118890;-75
2023/01/21 05:03:08;;;;;;;11.70;10.60;;;-1.80;48.60;;;;;;20254;6932;280998;-74
2023/01/21 05:05:34;;;;;;;11.80;10.80;;;-1.40;47.60;;;;;;20252;6932;318736;-76
2023/01/21 05:08:00;;;;;;;12.20;11.10;;;-1.40;47.60;;;;;;20167;6932;282331;-75
2023/01/21 05:10:27;;;;;;;12.13;11.07;;;-1.10;46.70;;;;;;20249;6932;284904;-76
2023/01/21 05:12:53;;;;;;;9.40;8.60;;;-1.00;46.80;;;;;;20435;6932;118647;-72
2023/01/21 05:15:19;;;;;;;11.18;10.25;;;-1.00;46.10;;;;;;20203;6947;310679;-73
2023/01/21 05:17:44;;;;;;;11.90;10.90;;;-1.00;46.70;;;;;;20217;6932;286185;-73
2023/01/21 05:20:11;;;;;;;10.35;9.35;;;-0.80;46.60;;;;;;20449;6932;118950;-73
2023/01/21 05:22:37;;;;;;;11.23;10.33;;;-0.90;46.60;;;;;;20234;6932;280161;-74
2023/01/21 05:25:03;;;;;;;11.55;10.65;;;-1.00;46.70;;;;;;20243;6932;311589;-75
2023/01/21 05:27:28;;;;;;;10.50;9.50;;;-0.80;46.40;;;;;;20457;6932;118016;-73
2023/01/21 05:29:55;;;;;;;9.63;8.73;;;-0.90;46.80;;;;;;20406;6947;118352;-73
2023/01/21 05:32:19;;;;;;;8.13;7.50;;;-1.10;46.90;;;;;;20452;6932;117655;-75
2023/01/21 05:34:45;;;;;;;11.70;10.70;;;-1.40;47.60;;;;;;20185;6945;308049;-73
2023/01/21 05:37:11;;;;;;;11.93;10.93;;;-1.40;47.60;;;;;;20241;6931;311430;-74
2023/01/21 05:39:37;;;;;;;11.53;10.63;;;-1.20;47.00;;;;;;20235;6931;310544;-73
2023/01/21 05:42:03;;;;;;;10.05;9.15;;;-1.00;46.60;;;;;;20432;6931;119517;-74
2023/01/21 05:44:30;;;;;;;9.80;8.80;;;-1.10;46.60;;;;;;20412;6946;116919;-76
2023/01/21 05:46:56;;;;;;;12.25;11.18;;;-1.30;47.00;;;;;;20234;6931;310814;-73
2023/01/21 05:49:22;;;;;;;9.68;8.73;;;-1.40;47.40;;;;;;20456;6931;118015;-73
2023/01/21 05:51:48;;;;;;;12.57;11.43;;;-1.40;47.40;;;;;;20250;6931;312538;-75
2023/01/21 05:54:14;;;;;;;9.88;8.93;;;-1.40;47.30;;;;;;20444;6932;118840;-72
2023/01/21 05:56:40;;;;;;;9.13;8.30;;;-1.60;47.60;;;;;;20442;6932;118587;-73
2023/01/21 05:59:06;;;;;;;8.10;7.40;;;-1.60;47.60;;;;;;20417;6947;117911;-76
2023/01/21 06:01:32;;;;;;;8.60;7.70;;;-1.70;48.10;;;;;;20445;6932;118230;-73
2023/01/21 06:03:57;;;;;;;11.60;10.50;;;-1.90;48.40;;;;;;20201;6946;295465;-75
2023/01/21 06:06:23;;;;;;;12.45;11.27;;;-1.80;48.60;;;;;;20227;6932;313357;-74
2023/01/21 06:08:48;;;;;;;10.48;9.52;;;-1.40;47.90;;;;;;20436;6932;122088;-75
2023/01/21 06:11:15;;;;;;;8.87;8.07;;;-1.40;47.50;;;;;;20455;6932;117892;-75
2023/01/21 06:13:41;;;;;;;11.50;10.50;;;-1.60;47.70;;;;;;20162;6947;280579;-77
2023/01/21 06:16:08;;;;;;;10.13;9.13;;;-1.50;48.10;;;;;;20450;6932;118514;-76
2023/01/21 06:18:33;;;;;;;8.47;7.57;;;-1.50;48.00;;;;;;20382;6947;128555;-76
2023/01/21 06:20:59;;;;;;;9.30;7.87;;;-1.70;48.30;;;;;;20456;6932;119177;-73
2023/01/21 06:23:25;;;;;;;11.65;10.65;;;-1.80;48.80;;;;;;20210;6947;315150;-73
2023/01/21 06:25:50;;;;;;;9.95;8.95;;;-1.70;48.90;;;;;;20461;6932;121928;-75
2023/01/21 06:28:16;;;;;;;8.47;7.67;;;-1.60;48.80;;;;;;20414;6947;117794;-75
2023/01/21 06:30:41;;;;;;;11.32;10.43;;;-1.70;48.90;;;;;;20224;6932;310500;-75
2023/01/21 06:33:08;;;;;;;11.73;10.73;;;-1.10;48.50;;;;;;20234;6932;315259;-75
2023/01/21 06:35:34;;;;;;;10.17;8.90;;;-1.10;48.50;;;;;;20458;6932;118620;-79
2023/01/21 06:37:59;;;;;;;11.93;10.87;;;-1.00;47.90;;;;;;20197;6947;310757;-77
2023/01/21 06:40:25;;;;;;;11.50;10.50;;;-1.00;47.80;;;;;;20248;6932;318457;-75
2023/01/21 06:42:52;;;;;;;9.23;8.32;;;-0.70;47.80;;;;;;20437;6932;118144;-75
2023/01/21 06:45:17;;;;;;;9.32;8.43;;;-1.00;48.00;;;;;;20455;6930;117937;-72
2023/01/21 06:47:42;;;;;;;8.57;7.70;;;-1.00;48.00;;;;;;20412;6946;118039;-72
2023/01/21 06:50:13;;;;;;;8.40;7.70;;;-1.20;48.40;;;;;;20434;6931;117772;-73
2023/01/21 06:52:38;;;;;;;8.50;7.70;;;-1.30;48.90;;;;;;20398;6946;121651;-70
2023/01/21 06:55:04;;;;;;;11.40;10.50;;;-1.40;49.20;;;;;;20247;6931;309826;-73
2023/01/21 06:57:29;;;;;;;8.87;8.20;;;-1.30;49.00;;;;;;20464;6931;118080;-71
2023/01/21 06:59:56;;;;;;;9.45;8.63;;;-1.20;48.80;;;;;;20423;6931;117776;-71
2023/01/21 07:02:22;;;;;;;15.63;14.03;;;-1.40;48.70;;;;;;20207;6946;286829;-71
2023/01/21 07:04:50;;;;;;;17.10;15.50;;;-1.30;48.50;;;;;;20240;6931;310903;-71
2023/01/21 07:07:13;;;;;;;15.18;13.85;;;-1.00;48.20;;;;;;20246;6932;281275;-72
2023/01/21 07:09:39;;;;;;;14.30;12.90;;;-0.60;47.10;;;;;;20246;6932;310294;-72
2023/01/21 07:12:04;;;;;;;13.80;12.40;;;-0.40;46.20;;;;;;20248;6932;344100;-74
2023/01/21 07:14:30;;;;;;;10.73;9.63;;;-0.30;45.60;;;;;;20460;6932;120087;-71
2023/01/21 07:16:55;;;;;;;12.00;11.00;;;-0.40;45.80;;;;;;20184;6947;311961;-71
2023/01/21 07:19:21;;;;;;;18.02;16.12;;;-0.50;46.10;;;;;;20240;6932;310179;-71
2023/01/21 07:21:47;;;;;;;15.32;13.68;;;-0.40;46.40;;;;;;20461;6932;118207;-71
2023/01/21 07:24:13;;;;;;;13.20;11.83;;;-0.40;46.40;;;;;;20466;6932;117978;-71
2023/01/21 07:26:40;;;;;;;16.98;15.20;;;-0.60;46.90;;;;;;20193;6932;288955;-72
2023/01/21 07:29:05;;;;;;;16.48;13.07;;;-0.60;47.30;;;;;;20456;6932;118190;-72
2023/01/21 07:31:30;;;;;;;16.65;14.40;;;-0.50;47.00;;;;;;20241;6932;310731;-72
2023/01/21 07:33:56;;;;;;;17.52;15.80;;;-0.50;47.00;;;;;;20241;6932;308762;-72
2023/01/21 07:36:22;;;;;;;16.17;13.83;;;-0.20;45.50;;;;;;20463;6932;118387;-72
2023/01/21 07:38:47;;;;;;;14.87;13.40;;;-0.30;45.30;;;;;;20441;6932;119548;-72
2023/01/21 07:41:13;;;;;;;14.95;13.45;;;-0.60;45.50;;;;;;20242;6932;312930;-72
2023/01/21 07:43:40;;;;;;;11.87;10.53;;;-0.60;45.50;;;;;;20417;6932;122072;-72
2023/01/21 07:46:05;;;;;;;14.13;12.73;;;-0.70;45.50;;;;;;20208;6932;311784;-72
2023/01/21 07:48:32;;;;;;;16.40;14.80;;;-0.70;45.90;;;;;;20429;6932;118377;-72
2023/01/21 07:50:58;;;;;;;15.20;13.73;;;-0.60;45.90;;;;;;20057;6932;309864;-72
2023/01/21 07:53:23;;;;;;;16.43;14.73;;;-0.70;45.80;;;;;;20209;6932;314051;-73
2023/01/21 07:55:49;;;;;;;18.37;15.70;;;-0.40;45.40;;;;;;20214;6932;335254;-73
2023/01/21 07:58:15;;;;;;;15.15;13.55;;;-0.20;45.30;;;;;;20439;6930;117957;-71
2023/01/21 08:00:40;;;;;;;14.23;11.25;;;-0.30;45.50;;;;;;20442;6931;118701;-71
2023/01/21 08:03:06;;;;;;;17.03;15.33;;;-0.60;46.60;;;;;;20220;6931;311370;-72
2023/01/21 08:05:31;;;;;;;18.92;16.50;;;-0.60;46.70;;;;;;20219;6931;314924;-73
2023/01/21 08:07:57;;;;;;;15.10;13.10;;;-0.30;48.10;;;;;;20455;6931;120381;-73
2023/01/21 08:10:23;;;;;;;19.35;17.10;;;-0.20;48.30;;;;;;20227;6931;310337;-73
2023/01/21 08:12:49;;;;;;;16.08;13.18;;;-0.10;47.60;;;;;;20442;6931;120578;-74
2023/01/21 08:15:14;;;;;;;20.63;17.90;;;-0.10;47.90;;;;;;20243;6931;287455;-75
2023/01/21 08:17:43;;;;;;;22.02;16.08;;;0.00;47.60;;;;;;20467;6932;118404;-76
2023/01/21 08:20:09;;;;;;;19.00;15.63;;;0.00;47.50;;;;;;20463;6932;120166;-74
2023/01/21 08:22:34;;;;;;;20.03;17.87;;;-0.20;47.80;;;;;;20234;6932;346879;-74
2023/01/21 08:25:00;;;;;;;22.10;19.02;;;-0.10;48.10;;;;;;20462;6932;119496;-74
2023/01/21 08:27:25;;;;;;;19.52;17.52;;;0.00;48.10;;;;;;20246;6932;315915;-74
2023/01/21 08:29:53;;;;;;;12.70;11.45;;;0.10;47.60;;;;;;20463;6932;118698;-74
2023/01/21 08:32:18;;;;;;;11.27;10.07;;;0.10;47.30;;;;;;20453;6932;118885;-74
2023/01/21 08:34:44;;;;;;;14.63;13.23;;;0.00;47.60;;;;;;20226;6932;314290;-75
2023/01/21 08:37:10;;;;;;;11.50;10.40;;;0.10;47.30;;;;;;20453;6932;122398;-74
2023/01/21 08:39:36;;;;;;;14.10;11.67;;;0.10;47.30;;;;;;20448;6932;117725;-74
2023/01/21 08:42:01;;;;;;;11.65;10.55;;;0.00;47.50;;;;;;20451;6932;117932;-73
2023/01/21 08:44:28;;;;;;;11.53;10.33;;;-0.20;47.80;;;;;;20449;6932;119951;-75
2023/01/21 08:46:55;;;;;;;14.33;11.60;;;-0.30;48.20;;;;;;20414;6932;118311;-75
2023/01/21 08:49:21;;;;;;;17.83;15.87;;;-0.10;47.90;;;;;;20242;6932;280726;-75
2023/01/21 08:51:47;;;;;;;14.20;12.70;;;-0.20;48.20;;;;;;20454;6932;117888;-75
2023/01/21 08:54:12;;;;;;;17.45;15.68;;;0.00;47.80;;;;;;20226;6932;315754;-75
2023/01/21 08:56:39;;;;;;;15.07;12.90;;;0.10;47.40;;;;;;20436;6932;120017;-76
2023/01/21 08:59:05;;;;;;;18.73;16.40;;;0.10;47.40;;;;;;20249;6932;281454;-77
2023/01/21 09:01:30;;;;;;;16.50;13.70;;;0.30;47.40;;;;;;20446;6932;120557;-75
2023/01/21 09:03:56;;;;;;;17.33;15.53;;;0.40;47.30;;;;;;20245;6932;282033;-74
2023/01/21 09:06:22;;;;;;;13.20;11.87;;;0.40;47.30;;;;;;20451;6932;117660;-74
2023/01/21 09:08:48;;;;;;;16.35;14.70;;;0.60;47.50;;;;;;20228;6930;280769;-73
2023/01/21 09:11:15;;;;;;;25.27;14.70;;;0.60;47.50;;;;;;20254;6931;283843;-73
2023/01/21 09:13:41;;;;;;;16.55;14.82;;;1.20;45.80;;;;;;20247;6931;316182;-75
2023/01/21 09:16:09;;;;;;;19.20;17.20;;;1.20;45.80;;;;;;20238;6931;314345;-79
2023/01/21 09:18:34;;;;;;;19.02;17.08;;;1.50;45.20;;;;;;20204;6931;342047;-75
2023/01/21 09:21:03;;;;;;;16.87;15.20;;;1.60;44.70;;;;;;20243;6931;311063;-73
2023/01/21 09:23:31;;;;;;;16.73;12.77;;;1.70;44.20;;;;;;20422;6931;117837;-72
2023/01/21 09:25:54;;;;;;;16.73;14.80;;;1.50;44.60;;;;;;20246;6931;285340;-75
2023/01/21 09:28:20;;;;;;;17.00;15.27;;;1.40;44.90;;;;;;20225;6932;310579;-74
2023/01/21 09:30:45;;;;;;;18.77;16.80;;;1.60;44.60;;;;;;20202;6932;296446;-73
2023/01/21 09:33:11;;;;;;;18.52;16.62;;;1.80;44.70;;;;;;20242;6932;310237;-73
2023/01/21 09:35:37;;;;;;;17.60;15.80;;;1.60;44.20;;;;;;20451;6932;117831;-72
2023/01/21 09:38:03;;;;;;;22.03;19.83;;;1.60;44.10;;;;;;20244;6932;311519;-73
2023/01/21 09:40:29;;;;;;;21.80;19.60;;;1.60;44.60;;;;;;20253;6932;310340;-74
2023/01/21 09:42:55;;;;;;;17.63;15.33;;;1.60;44.30;;;;;;20436;6932;118119;-73
2023/01/21 09:45:21;;;;;;;19.33;17.37;;;1.50;44.60;;;;;;20247;6932;311108;-70
2023/01/21 09:47:47;;;;;;;20.23;18.12;;;1.40;45.00;;;;;;20249;6932;310896;-72
2023/01/21 09:50:17;;;;;;;22.23;20.02;;;1.60;44.90;;;;;;20249;6932;280563;-75
2023/01/21 09:52:51;;;;;;;19.53;17.47;;;1.80;44.70;;;;;;20419;6932;120478;-74
2023/01/21 09:55:23;;;;;;;19.03;15.33;;;1.60;44.80;;;;;;20442;6932;119016;-76
2023/01/21 09:57:58;;;;;;;20.17;14.53;;;1.40;45.50;;;;;;20454;6932;118851;-73
2023/01/21 10:00:50;;;;;;;15.03;13.33;;;1.10;46.00;;;;;;20464;6932;118524;-77
2023/01/21 10:03:22;;;;;;;18.93;14.60;;;0.90;46.50;;;;;;20455;6932;122167;-73
2023/01/21 10:06:12;;;;;;;21.20;14.93;;;0.70;46.90;;;;;;20446;6932;119323;-74
2023/01/21 10:09:02;;;;;;;16.17;13.17;;;0.60;47.20;;;;;;20428;6932;118320;-75
2023/01/21 10:11:48;;;;;;;16.97;14.03;;;0.40;47.30;;;;;;20455;6932;118677;-72
2023/01/21 10:14:23;;;;;;;18.83;14.37;;;0.40;47.80;;;;;;20439;6932;117833;-72
2023/01/21 10:16:53;;;;;;;16.97;14.37;;;0.40;48.50;;;;;;20402;6932;118451;-73
2023/01/21 10:19:22;;;;;;;19.60;15.40;;;0.40;49.10;;;;;;20433;6932;118919;-74
2023/01/21 10:21:54;;;;;;;20.00;14.57;;;0.40;48.50;;;;;;20441;6930;118316;-73
2023/01/21 10:24:19;;;;;;;22.10;19.67;;;0.40;48.60;;;;;;20217;6931;281428;-78
2023/01/21 10:26:45;;;;;;;22.27;16.60;;;0.80;48.20;;;;;;20387;6931;119698;-75
2023/01/21 10:29:14;;;;;;;21.73;16.10;;;0.80;48.20;;;;;;20445;6931;118503;-75
2023/01/21 10:31:40;;;;;;;23.90;21.40;;;0.90;48.00;;;;;;20236;6931;310727;-75
2023/01/21 10:34:10;;;;;;;22.03;18.50;;;0.90;48.00;;;;;;20446;6931;117904;-75
2023/01/21 10:37:12;;;;;;;21.33;18.83;;;1.00;47.80;;;;;;20403;6931;121834;-73
2023/01/21 10:39:54;;;;;;;23.60;21.13;;;1.00;47.90;;;;;;20245;6931;280954;-75
2023/01/21 10:42:42;;;;;;;25.73;23.13;;;1.20;47.80;;;;;;20199;6932;316567;-74
2023/01/21 10:45:14;;;;;;;21.43;18.17;;;1.60;47.10;;;;;;20380;6932;118056;-75
2023/01/21 10:48:00;;;;;;;23.37;18.33;;;1.60;47.50;;;;;;20406;6932;117827;-75
2023/01/21 10:50:28;;;;;;;25.50;22.80;;;1.40;47.40;;;;;;20198;6932;285111;-75
2023/01/21 10:53:15;;;;;;;26.80;24.00;;;1.80;47.10;;;;;;20186;6932;316403;-75
2023/01/21 10:56:04;;;;;;;28.73;25.40;;;1.80;47.10;;;;;;20210;6932;281048;-75
2023/01/21 10:58:29;;;;;;;26.40;23.70;;;2.10;47.20;;;;;;20248;6932;310230;-74
2023/01/21 11:00:55;;;;;;;31.20;27.90;;;2.40;46.20;;;;;;20198;6932;311704;-76
2023/01/21 11:03:47;;;;;;;27.37;24.03;;;2.60;46.10;;;;;;20232;6932;341034;-76
2023/01/21 11:06:12;;;;;;;23.40;20.50;;;2.60;46.10;;;;;;20437;6932;118380;-76
2023/01/21 11:08:38;;;;;;;20.65;18.42;;;2.40;46.40;;;;;;20430;6932;119930;-76
2023/01/21 11:11:07;;;;;;;22.65;17.20;;;2.10;46.70;;;;;;20452;6932;118464;-76
2023/01/21 11:13:32;;;;;;;26.92;22.75;;;1.80;47.30;;;;;;20243;6932;340354;-76
2023/01/21 11:15:58;;;;;;;26.33;22.02;;;1.80;47.70;;;;;;20244;6932;295046;-74
2023/01/21 11:18:40;;;;;;;25.30;21.05;;;2.10;47.70;;;;;;20233;6932;280294;-71
2023/01/21 11:21:15;;;;;;;23.90;16.33;;;2.30;47.40;;;;;;20453;6932;117911;-75
2023/01/21 11:23:41;;;;;;;21.70;15.40;;;2.20;47.30;;;;;;20374;6932;118199;-74
2023/01/21 11:26:06;;;;;;;18.80;15.17;;;1.90;47.90;;;;;;20441;6932;123698;-73
2023/01/21 11:28:33;;;;;;;19.60;14.15;;;1.70;48.30;;;;;;20413;6932;117843;-73
2023/01/21 11:31:20;;;;;;;23.40;19.63;;;1.60;48.60;;;;;;20239;6932;315430;-75
2023/01/21 11:33:48;;;;;;;23.43;20.50;;;2.00;48.90;;;;;;20215;6931;317304;-78
2023/01/21 11:36:17;;;;;;;25.47;17.73;;;2.00;48.80;;;;;;20452;6931;119691;-78
2023/01/21 11:38:42;;;;;;;24.33;20.25;;;2.00;48.60;;;;;;20233;6931;282257;-78
2023/01/21 11:41:11;;;;;;;24.10;20.57;;;2.10;48.60;;;;;;20239;6931;315676;-76
2023/01/21 11:43:43;;;;;;;25.48;21.83;;;2.30;48.30;;;;;;20254;6931;288825;-76
2023/01/21 11:46:19;;;;;;;26.43;22.23;;;2.50;48.10;;;;;;20242;6931;318238;-76
2023/01/21 11:48:44;;;;;;;22.70;17.73;;;2.70;47.60;;;;;;20434;6931;119177;-77
2023/01/21 11:51:10;;;;;;;24.30;21.62;;;2.60;47.80;;;;;;20245;6931;310247;-76
2023/01/21 11:53:37;;;;;;;21.65;17.70;;;2.50;48.00;;;;;;20460;6932;117927;-80
2023/01/21 11:56:02;;;;;;;23.77;17.03;;;2.40;47.90;;;;;;20431;6932;117976;-79
2023/01/21 11:58:31;;;;;;;25.52;21.70;;;2.20;48.30;;;;;;20221;6932;304860;-76
2023/01/21 12:00:58;;;;;;;26.37;23.57;;;2.50;48.30;;;;;;20205;6932;324766;-76
2023/01/21 12:03:24;;;;;;;27.83;24.23;;;2.50;48.30;;;;;;20238;6932;343775;-77
2023/01/21 12:05:50;;;;;;;26.08;23.33;;;2.70;47.90;;;;;;20247;6932;310347;-75
2023/01/21 12:08:25;;;;;;;21.43;17.23;;;3.00;47.60;;;;;;20462;6932;119883;-76
2023/01/21 12:10:51;;;;;;;23.97;21.50;;;2.80;47.30;;;;;;20234;6932;280125;-75
2023/01/21 12:13:42;;;;;;;23.75;21.30;;;2.70;47.50;;;;;;20247;6932;330774;-75
2023/01/21 12:16:15;;;;;;;24.70;22.10;;;2.90;47.80;;;;;;20255;6932;310801;-75
2023/01/21 12:19:17;;;;;;;30.63;21.30;;;3.00;47.50;;;;;;20413;6932;120849;-75
2023/01/21 12:22:04;;;;;;;21.67;17.23;;;2.90;47.80;;;;;;20445;6932;118014;-77
2023/01/21 12:24:47;;;;;;;20.37;15.37;;;2.50;48.40;;;;;;20435;6932;118054;-75
2023/01/21 12:27:15;;;;;;;16.80;13.77;;;2.20;48.90;;;;;;20434;6932;120897;-75
2023/01/21 12:29:53;;;;;;;18.47;14.60;;;2.00;49.40;;;;;;20432;6932;117740;-74
2023/01/21 12:32:22;;;;;;;19.43;14.80;;;1.90;49.60;;;;;;20247;6932;119364;-75
2023/01/21 12:35:01;;;;;;;22.90;19.30;;;1.80;49.90;;;;;;20171;6932;282455;-75
2023/01/21 12:37:45;;;;;;;22.70;20.30;;;2.30;49.70;;;;;;19698;6932;280513;-72